Aérodrome :
LOGIN :

S'inscrire | Disclaimer

   EN    FR    IT 

 










Légende :    VFR   VFR Marginal   IFR   IFR Intensif   IFR Très Intensif
Visi : 
Plafond : 
>= 8 km
>= 3000ft
5 à 8 km
1000 à 3000 ft
1500m à 5 km
500 à 1000 ft
800 à 1500m
200 à 500 ft
< 800m
< 200 ft
Symboles :   Orages  Brouillard  Fortes neiges  Fortes précipitations  Vent > 20 kt
SIGMETs :   Divers  Orages  Givrage  Turbulence  Onde Orograph.  Cendres Volcan.







- Altitude de l'aérodrome : 233 ft
- Code IATA : REU


LERS - Reus Tarragona

DERNIER METAR :
  • 161700Z VRB02KT 9999 FEW040 28/20 Q1018

METARs EXPIRÉS :
  • 161630Z 14005KT 090V190 9999 FEW040 27/20 Q1017
  • 161600Z 13004KT 070V190 9999 FEW040 28/20 Q1017
  • 161530Z 14005KT 060V200 9999 FEW040 28/19 Q1018
  • 161500Z 14007KT 080V190 9999 FEW040 29/19 Q1018
  • 161430Z 13006KT 070V200 9999 FEW040 29/19 Q1018

TAF TAF LERS
Valide du 16 à 15h jusqu'au 17 à 15h UTC


161400Z 1615/1715 12010KT 9999 FEW040 TX30/1713Z TN22/1705Z
BECMG 1618/1621 VRB03KT
BECMG 1709/1711 14010KT
Pas de NOTAMs connus pour ce terrain.
1 SIGMET publié pour la FIR Barcelona (LECB) :
 
Orages noyés dans la masse
LECB SIGMET 1 VALID 161602/161800 LEVA
LECB BARCELONA FIR/UIR EMBD TS OBS AT 1602Z WI N4030 W001 - N4110 W00010 - N41 E00030 - N3940 W00030 - N3940 W001 - N4030 W001 TOP FL400 STNR NC=



MET'MAP, la Météo Aéronautique d'un coup d'oeil ! - Copyright ORBIFLY Décembre 2007 - Disclaimer

ORBIFLY MET'MAP TEAM :

Programmation & Développement : Alexandra Zaïnal
Conception & Développement : Baudouin d'Aumeries
Co-Programmation & Développement : Marc-Olivier Méhu
Soutien technique & logistique : Manuel Goepfert

Contact : metmap@orbifly.com




SOURCES & CREDITS :

   NOAA